Time;durP1;ratioP1;P1;durP2;ratioP2;P2;SDS_P1;SDS_P2;PMS_P1;PMS_P2;Temp;Humidity;BMP_temperature;BMP_pressure;BME280_temperature;BME280_humidity;BME280_pressure;Samples;Min_cycle;Max_cycle;Signal;HPM_P1;HPM_P2
2024/01/25 00:00:43;;;;;;;1.17;0.60;;;;;;;9.98;82.73;101825.25;2087643;28;20196;-65
2024/01/25 00:01:44;;;;;;;1.63;0.70;;;;;;;9.98;82.46;101825.25;2087920;28;20251;-65
2024/01/25 00:02:45;;;;;;;1.43;0.70;;;;;;;9.94;83.04;101828.03;2088322;28;20215;-64
2024/01/25 00:03:46;;;;;;;1.53;0.60;;;;;;;10.00;82.61;101834.75;2106401;28;20435;-65
2024/01/25 00:04:46;;;;;;;0.87;0.50;;;;;;;10.02;82.63;101837.94;2104150;28;20659;-65
2024/01/25 00:05:47;;;;;;;0.80;0.53;;;;;;;10.04;83.37;101821.72;2086666;28;20230;-65
2024/01/25 00:06:48;;;;;;;0.93;0.60;;;;;;;10.04;83.08;101804.34;2087141;28;20196;-65
2024/01/25 00:07:49;;;;;;;2.40;0.67;;;;;;;9.11;82.92;101666.53;2087118;28;20418;-65
2024/01/25 00:08:49;;;;;;;1.10;0.60;;;;;;;10.01;83.32;101807.88;2088391;28;20188;-66
2024/01/25 00:09:50;;;;;;;1.43;0.70;;;;;;;9.95;83.01;101809.47;2090131;28;20426;-65
2024/01/25 00:10:50;;;;;;;0.87;0.60;;;;;;;10.01;83.07;101813.41;2088272;28;20283;-65
2024/01/25 00:11:50;;;;;;;1.10;0.60;;;;;;;10.00;83.60;101818.13;2088386;28;20255;-65
2024/01/25 00:12:51;;;;;;;1.83;0.60;;;;;;;10.02;84.08;101812.22;2088609;28;20215;-65
2024/01/25 00:13:51;;;;;;;1.37;0.57;;;;;;;9.97;83.62;101807.06;2088287;28;20273;-66
2024/01/25 00:14:53;;;;;;;1.53;0.70;;;;;;;10.02;83.76;101806.66;2086927;28;20191;-65
2024/01/25 00:15:54;;;;;;;1.87;1.00;;;;;;;9.75;83.41;101756.53;2089075;28;20262;-65
2024/01/25 00:16:55;;;;;;;0.50;0.47;;;;;;;10.07;83.58;101793.25;2083622;28;20550;-65
2024/01/25 00:17:56;;;;;;;1.20;0.80;;;;;;;10.11;83.62;101788.50;2086925;28;20281;-66
2024/01/25 00:18:57;;;;;;;1.43;0.63;;;;;;;10.09;83.38;101782.53;2087102;28;20189;-66
2024/01/25 00:19:57;;;;;;;1.43;0.70;;;;;;;10.11;83.25;101787.69;2086482;28;20429;-65
2024/01/25 00:20:58;;;;;;;0.97;0.63;;;;;;;10.10;82.28;101786.09;2086937;28;20202;-65
2024/01/25 00:21:58;;;;;;;1.00;0.70;;;;;;;10.13;82.31;101786.09;2088987;28;20621;-65
2024/01/25 00:22:59;;;;;;;1.03;0.60;;;;;;;10.09;82.63;101781.78;2087093;28;20194;-65
2024/01/25 00:23:59;;;;;;;2.00;0.57;;;;;;;10.08;82.75;101760.78;2086056;28;20197;-65
2024/01/25 00:25:00;;;;;;;1.30;0.60;;;;;;;10.08;82.83;101753.28;2086474;28;20213;-66
2024/01/25 00:26:00;;;;;;;1.37;0.70;;;;;;;9.43;83.22;101652.63;2085890;28;20199;-65
2024/01/25 00:27:01;;;;;;;1.93;0.50;;;;;;;10.16;82.19;101778.97;2085240;28;20181;-66
2024/01/25 00:28:02;;;;;;;1.80;0.63;;;;;;;10.20;82.48;101782.50;2087725;28;20237;-65
2024/01/25 00:29:02;;;;;;;1.10;0.70;;;;;;;10.06;82.35;101766.75;2087115;28;20195;-65
2024/01/25 00:30:04;;;;;;;1.17;0.70;;;;;;;9.91;82.23;101733.91;2086369;28;20452;-66
2024/01/25 00:31:05;;;;;;;1.30;0.70;;;;;;;8.92;82.59;101574.94;2086827;28;20196;-65
2024/01/25 00:32:06;;;;;;;1.43;0.70;;;;;;;10.28;83.02;101795.13;2086703;28;20489;-65
2024/01/25 00:33:06;;;;;;;1.03;0.60;;;;;;;10.27;82.74;101799.91;2086506;28;20195;-66
2024/01/25 00:34:07;;;;;;;1.43;0.63;;;;;;;10.31;82.58;101792.34;2088052;28;20609;-66
2024/01/25 00:35:10;;;;;;;1.27;0.80;;;;;;;10.03;82.52;101739.81;2086622;28;20758;-65
2024/01/25 00:36:11;;;;;;;0.70;0.60;;;;;;;10.15;82.36;101767.06;2087386;28;20190;-65
2024/01/25 00:37:12;;;;;;;1.50;0.70;;;;;;;10.39;82.15;101799.44;2085721;28;20446;-66
2024/01/25 00:38:13;;;;;;;1.80;0.67;;;;;;;10.47;82.04;101802.97;2085706;28;20431;-65
2024/01/25 00:39:14;;;;;;;0.60;0.43;;;;;;;10.49;81.92;101806.91;2086346;28;20672;-66
2024/01/25 00:40:14;;;;;;;1.37;0.90;;;;;;;10.25;81.99;101765.47;2088590;28;20188;-66
2024/01/25 00:41:21;;;;;;;1.27;0.53;;;;;;;10.21;82.13;101756.38;2086916;28;20190;-66
2024/01/25 00:42:25;;;;;;;1.30;0.70;;;;;;;10.22;82.27;101756.00;2087280;28;20192;-65
2024/01/25 00:43:26;;;;;;;1.03;0.60;;;;;;;10.61;82.38;101808.44;2085711;28;20794;-65
2024/01/25 00:44:27;;;;;;;1.17;0.80;;;;;;;10.66;81.51;101808.81;2085645;28;20461;-66
2024/01/25 00:45:28;;;;;;;2.97;0.70;;;;;;;10.69;80.34;101809.97;2077062;28;21062;-66
2024/01/25 00:46:47;;;;;;;1.23;0.70;;;;;;;10.63;80.25;101812.41;2085637;28;20212;-65
2024/01/25 00:47:48;;;;;;;1.77;0.70;;;;;;;10.63;80.68;101806.06;2085794;28;20176;-65
2024/01/25 00:48:48;;;;;;;1.17;0.60;;;;;;;10.61;80.59;101817.53;2087782;28;20430;-65
2024/01/25 00:49:49;;;;;;;1.67;0.87;;;;;;;10.68;80.70;101811.19;2084691;28;20238;-65
2024/01/25 00:50:50;;;;;;;2.47;0.70;;;;;;;10.58;81.24;101807.28;2086032;28;20289;-65
2024/01/25 00:51:58;;;;;;;1.33;0.70;;;;;;;10.70;81.56;101815.13;2086035;28;20215;-65
2024/01/25 00:52:59;;;;;;;0.83;0.60;;;;;;;10.73;82.04;101817.09;2087218;28;20200;-66
2024/01/25 00:53:59;;;;;;;1.00;0.57;;;;;;;10.69;81.32;101809.97;2086541;28;20484;-66
2024/01/25 00:55:00;;;;;;;1.17;0.70;;;;;;;10.69;81.67;101808.00;2086663;28;20218;-66
2024/01/25 00:56:01;;;;;;;1.50;0.80;;;;;;;10.72;82.17;101809.19;2088779;28;20575;-66
2024/01/25 00:57:02;;;;;;;1.13;0.60;;;;;;;10.76;82.51;101805.19;2084955;28;20189;-66
2024/01/25 00:58:03;;;;;;;0.70;0.50;;;;;;;10.76;82.75;101802.41;2084338;28;20203;-65
2024/01/25 00:59:04;;;;;;;2.37;0.77;;;;;;;10.61;81.98;101764.09;2084172;28;20197;-66
2024/01/25 01:00:05;;;;;;;1.23;0.60;;;;;;;10.63;81.93;101770.00;2083480;28;20283;-66
2024/01/25 01:01:06;;;;;;;1.47;0.57;;;;;;;10.87;82.18;101803.13;2084512;28;20187;-66
2024/01/25 01:02:11;;;;;;;1.00;0.70;;;;;;;10.32;81.80;101702.50;2086381;28;20430;-66
2024/01/25 01:03:14;;;;;;;0.97;0.70;;;;;;;10.96;82.55;101792.38;2085224;28;20446;-66
2024/01/25 01:04:15;;;;;;;0.90;0.60;;;;;;;10.26;82.66;101686.69;2083991;28;20451;-65
2024/01/25 01:05:16;;;;;;;1.43;0.60;;;;;;;10.96;83.01;101795.16;2083660;28;20945;-65
2024/01/25 01:06:17;;;;;;;1.03;0.70;;;;;;;10.89;83.62;101786.88;2084158;28;20458;-66
2024/01/25 01:07:17;;;;;;;2.33;0.83;;;;;;;10.78;84.98;101785.38;2083011;28;20184;-66
2024/01/25 01:08:18;;;;;;;1.10;0.70;;;;;;;10.79;85.74;101779.44;2085047;28;20191;-66
2024/01/25 01:09:19;;;;;;;1.03;0.70;;;;;;;10.77;86.52;101775.47;2085636;28;20218;-66
2024/01/25 01:10:19;;;;;;;1.27;0.77;;;;;;;10.73;87.59;101775.50;2084056;28;20658;-65
2024/01/25 01:11:20;;;;;;;1.00;0.70;;;;;;;10.75;88.97;101786.97;2084634;28;20307;-65
2024/01/25 01:12:20;;;;;;;0.77;0.60;;;;;;;10.72;89.73;101781.44;2083721;28;20659;-66
2024/01/25 01:13:21;;;;;;;1.57;0.60;;;;;;;10.77;90.62;101792.88;2084170;28;20195;-66
2024/01/25 01:14:21;;;;;;;0.67;0.47;;;;;;;10.85;91.36;101782.53;2085709;28;20184;-65
2024/01/25 01:15:22;;;;;;;1.13;0.57;;;;;;;10.79;92.11;101784.97;2085152;28;20561;-65
2024/01/25 01:16:22;;;;;;;1.13;0.53;;;;;;;10.83;93.10;101790.50;2084103;28;20226;-66
2024/01/25 01:17:23;;;;;;;0.93;0.67;;;;;;;10.80;93.92;101780.19;2082993;28;20619;-65
2024/01/25 01:18:23;;;;;;;0.50;0.37;;;;;;;10.76;94.28;101771.91;2084253;28;20207;-65
2024/01/25 01:19:24;;;;;;;2.13;0.60;;;;;;;10.72;94.89;101773.91;2084270;28;20271;-65
2024/01/25 01:20:24;;;;;;;1.20;0.50;;;;;;;10.70;96.24;101776.31;2085724;28;20890;-65
2024/01/25 01:21:25;;;;;;;0.90;0.40;;;;;;;10.70;96.31;101772.72;2082656;28;20212;-66
2024/01/25 01:22:25;;;;;;;0.63;0.40;;;;;;;10.69;97.10;101768.38;2083160;28;20542;-65
2024/01/25 01:23:26;;;;;;;0.40;0.40;;;;;;;10.71;97.41;101771.56;2084287;28;20849;-65
2024/01/25 01:24:26;;;;;;;1.27;0.60;;;;;;;10.71;97.30;101775.09;2084088;28;20558;-65
2024/01/25 01:25:27;;;;;;;1.00;0.60;;;;;;;10.57;97.94;101746.69;2084213;28;20192;-65
2024/01/25 01:26:27;;;;;;;0.37;0.37;;;;;;;10.75;98.49;101750.13;2085680;28;20192;-64
2024/01/25 01:27:28;;;;;;;1.10;0.60;;;;;;;10.77;98.60;101758.84;2084614;28;20206;-65
2024/01/25 01:28:28;;;;;;;1.00;0.57;;;;;;;10.77;99.02;101765.16;2084351;28;20192;-65
2024/01/25 01:29:29;;;;;;;0.50;0.33;;;;;;;10.86;98.84;101756.41;2084088;28;20619;-66
2024/01/25 01:30:29;;;;;;;2.43;0.70;;;;;;;10.83;98.69;101748.91;2084190;28;20539;-65
2024/01/25 01:31:30;;;;;;;0.90;0.60;;;;;;;10.80;99.13;101742.19;2083405;28;20218;-65
2024/01/25 01:32:31;;;;;;;0.70;0.50;;;;;;;10.90;98.79;101748.84;2086281;28;20188;-65
2024/01/25 01:33:31;;;;;;;1.90;0.50;;;;;;;10.92;98.69;101746.47;2083970;28;20283;-65
2024/01/25 01:34:32;;;;;;;0.60;0.30;;;;;;;10.90;98.62;101746.84;2083722;28;20566;-65
2024/01/25 01:35:32;;;;;;;0.87;0.50;;;;;;;10.84;98.75;101748.50;2083538;28;20717;-65
2024/01/25 01:36:33;;;;;;;0.33;0.30;;;;;;;10.83;98.18;101746.94;2082725;28;20261;-64
2024/01/25 01:37:33;;;;;;;1.43;0.43;;;;;;;10.79;98.54;101743.38;2083516;28;20617;-65
2024/01/25 01:38:34;;;;;;;1.07;0.70;;;;;;;10.79;98.85;101739.81;2086275;28;20267;-65
2024/01/25 01:39:34;;;;;;;1.30;0.57;;;;;;;10.80;98.57;101744.94;2083593;28;20646;-65
2024/01/25 01:40:35;;;;;;;1.03;0.60;;;;;;;10.74;97.64;101743.00;2083918;28;20185;-64
2024/01/25 01:41:36;;;;;;;1.00;0.60;;;;;;;10.87;97.18;101755.22;2083757;28;20305;-65
2024/01/25 01:42:36;;;;;;;1.53;0.50;;;;;;;10.86;97.34;101759.19;2083106;28;20205;-66
2024/01/25 01:43:37;;;;;;;0.50;0.50;;;;;;;9.70;97.12;101574.25;2083337;28;20263;-65
2024/01/25 01:44:39;;;;;;;1.93;0.70;;;;;;;10.47;97.80;101695.69;2086103;28;20726;-65
2024/01/25 01:45:39;;;;;;;1.27;0.77;;;;;;;10.83;98.32;101749.69;2083840;28;20289;-65
2024/01/25 01:46:41;;;;;;;0.97;0.50;;;;;;;10.86;98.25;101756.41;2083330;28;20443;-65
2024/01/25 01:47:42;;;;;;;1.27;0.60;;;;;;;10.89;98.03;101753.59;2083369;28;20686;-66
2024/01/25 01:48:43;;;;;;;1.00;0.70;;;;;;;10.89;97.67;101769.44;2083914;28;20824;-65
2024/01/25 01:49:44;;;;;;;0.60;0.50;;;;;;;10.20;97.58;101641.22;2083503;28;20278;-66
2024/01/25 01:50:45;;;;;;;0.60;0.40;;;;;;;10.82;97.22;101750.09;2086157;28;20183;-65
2024/01/25 01:51:46;;;;;;;1.77;0.40;;;;;;;10.85;97.68;101755.63;2084304;28;20220;-66
2024/01/25 01:52:47;;;;;;;0.63;0.50;;;;;;;10.60;98.07;101724.50;2085265;28;20538;-65
2024/01/25 01:53:49;;;;;;;1.07;0.60;;;;;;;10.84;98.43;101756.81;2084516;28;20564;-65
2024/01/25 01:54:49;;;;;;;0.83;0.57;;;;;;;10.89;98.78;101750.03;2083634;28;26509;-65
2024/01/25 01:55:50;;;;;;;1.40;0.60;;;;;;;10.91;98.73;101753.22;2083600;28;20423;-66
2024/01/25 01:56:52;;;;;;;0.80;0.70;;;;;;;10.81;99.10;101752.06;2085453;28;20233;-65
2024/01/25 01:57:52;;;;;;;0.97;0.50;;;;;;;10.78;99.64;101749.31;2084961;28;20497;-65
2024/01/25 01:58:54;;;;;;;1.53;0.60;;;;;;;10.85;99.98;101747.28;2084587;28;20457;-65
2024/01/25 01:59:55;;;;;;;1.37;0.50;;;;;;;10.86;100.00;101740.53;2083236;28;20195;-65
2024/01/25 02:00:56;;;;;;;0.93;0.60;;;;;;;10.80;100.00;101744.94;2083816;28;21045;-65
2024/01/25 02:01:57;;;;;;;0.87;0.47;;;;;;;10.79;100.00;101745.34;2084927;28;21035;-65
2024/01/25 02:02:57;;;;;;;0.73;0.50;;;;;;;10.78;100.00;101747.34;2085479;28;21043;-65
2024/01/25 02:03:58;;;;;;;1.20;0.60;;;;;;;10.74;100.00;101751.31;2082815;28;20224;-65
2024/01/25 02:04:58;;;;;;;0.50;0.47;;;;;;;10.73;100.00;101752.53;2084202;28;20650;-65
2024/01/25 02:06:02;;;;;;;0.50;0.30;;;;;;;10.59;100.00;101742.31;2083825;28;20740;-64
2024/01/25 02:07:03;;;;;;;0.80;0.60;;;;;;;10.27;100.00;101693.81;2082803;28;20662;-65
2024/01/25 02:08:05;;;;;;;0.53;0.43;;;;;;;10.69;100.00;101760.06;2084681;28;20619;-66
2024/01/25 02:09:06;;;;;;;0.70;0.50;;;;;;;10.58;100.00;101737.19;2085519;28;20448;-65
2024/01/25 02:10:08;;;;;;;0.57;0.40;;;;;;;10.66;100.00;101752.59;2092062;28;20473;-66
2024/01/25 02:11:14;;;;;;;0.87;0.40;;;;;;;10.39;100.00;101705.22;2091307;28;20449;-65
2024/01/25 02:12:17;;;;;;;0.70;0.50;;;;;;;10.17;100.00;101665.00;2084827;28;20453;-65
2024/01/25 02:13:18;;;;;;;1.70;0.57;;;;;;;10.66;100.00;101749.81;2084207;28;20452;-65
2024/01/25 02:14:18;;;;;;;1.10;0.50;;;;;;;10.71;100.00;101752.94;2082373;28;20457;-65
2024/01/25 02:15:19;;;;;;;0.60;0.30;;;;;;;10.72;100.00;101753.72;2084080;28;20188;-65
2024/01/25 02:16:20;;;;;;;2.20;0.53;;;;;;;10.21;100.00;101676.06;2086118;28;20184;-65
2024/01/25 02:17:21;;;;;;;1.17;0.60;;;;;;;10.66;100.00;101738.72;2082762;28;20188;-65
2024/01/25 02:18:22;;;;;;;1.27;0.60;;;;;;;10.75;100.00;101739.84;2083898;28;20215;-65
2024/01/25 02:19:22;;;;;;;1.03;0.53;;;;;;;10.17;100.00;101662.22;2084876;28;20189;-65
2024/01/25 02:20:22;;;;;;;1.07;0.50;;;;;;;10.74;100.00;101746.59;2083466;28;20438;-65
2024/01/25 02:21:23;;;;;;;1.80;0.40;;;;;;;10.65;100.00;101735.16;2083355;28;20528;-66
2024/01/25 02:22:24;;;;;;;1.07;0.47;;;;;;;10.77;100.00;101747.75;2085856;28;20673;-66
2024/01/25 02:23:24;;;;;;;1.67;0.50;;;;;;;10.79;100.00;101762.00;2084429;28;20200;-65
2024/01/25 02:24:25;;;;;;;0.87;0.40;;;;;;;10.82;100.00;101755.66;2083696;28;20188;-65
2024/01/25 02:25:25;;;;;;;1.13;0.50;;;;;;;10.84;100.00;101756.00;2083683;28;20609;-65
2024/01/25 02:26:26;;;;;;;1.57;0.40;;;;;;;10.58;100.00;101703.91;2083432;28;20693;-65
2024/01/25 02:27:26;;;;;;;0.70;0.40;;;;;;;10.91;100.00;101753.22;2083059;28;20240;-65
2024/01/25 02:28:27;;;;;;;0.80;0.37;;;;;;;10.95;100.00;101763.06;2085557;28;20190;-65
2024/01/25 02:29:27;;;;;;;0.77;0.40;;;;;;;10.99;100.00;101749.16;2083903;28;20616;-65
2024/01/25 02:30:28;;;;;;;0.60;0.43;;;;;;;10.76;100.00;101718.47;2083426;28;20195;-65
2024/01/25 02:31:28;;;;;;;1.07;0.43;;;;;;;10.38;100.00;101655.75;2083484;28;20212;-65
2024/01/25 02:32:29;;;;;;;0.40;0.30;;;;;;;11.03;100.00;101753.50;2083438;28;20241;-65
2024/01/25 02:33:29;;;;;;;0.50;0.40;;;;;;;11.05;100.00;101761.41;2084128;28;20210;-66
2024/01/25 02:34:30;;;;;;;1.27;0.50;;;;;;;11.06;100.00;101755.44;2086123;28;20183;-65
2024/01/25 02:35:30;;;;;;;0.70;0.33;;;;;;;11.04;100.00;101757.06;2082836;28;20197;-64
2024/01/25 02:36:31;;;;;;;0.43;0.30;;;;;;;11.10;100.00;101764.53;2082860;28;20341;-66
2024/01/25 02:37:31;;;;;;;0.87;0.47;;;;;;;11.15;100.00;101755.78;2083870;28;20188;-64
2024/01/25 02:38:32;;;;;;;0.87;0.60;;;;;;;10.12;100.00;101589.84;2083440;28;20544;-65
2024/01/25 02:39:32;;;;;;;0.40;0.30;;;;;;;11.18;100.00;101762.50;2083312;28;20572;-65
2024/01/25 02:40:33;;;;;;;0.40;0.40;;;;;;;11.04;100.00;101751.50;2086734;28;20716;-64
2024/01/25 02:41:33;;;;;;;0.90;0.43;;;;;;;10.13;100.00;101599.72;2083832;28;20529;-65
2024/01/25 02:42:34;;;;;;;0.87;0.50;;;;;;;10.54;100.00;101667.13;2084116;28;20216;-65
2024/01/25 02:43:34;;;;;;;0.43;0.30;;;;;;;11.20;100.00;101776.75;2084062;28;20250;-64
2024/01/25 02:44:35;;;;;;;1.00;0.60;;;;;;;11.06;100.00;101755.44;2083649;28;20264;-66
2024/01/25 02:45:35;;;;;;;1.50;0.70;;;;;;;11.06;100.00;101768.56;2083731;28;20191;-65
2024/01/25 02:46:36;;;;;;;0.93;0.60;;;;;;;10.26;100.00;101634.84;2084420;28;20188;-65
2024/01/25 02:47:36;;;;;;;0.63;0.40;;;;;;;10.81;100.00;101720.78;2082573;28;20200;-65
2024/01/25 02:48:37;;;;;;;0.93;0.57;;;;;;;11.11;100.00;101773.63;2083371;28;20192;-65
2024/01/25 02:49:37;;;;;;;0.43;0.40;;;;;;;11.12;100.00;101778.78;2083595;28;20228;-66
2024/01/25 02:50:38;;;;;;;1.80;0.67;;;;;;;11.16;100.00;101785.09;2083798;28;20186;-65
2024/01/25 02:51:38;;;;;;;2.50;0.70;;;;;;;10.30;100.00;101645.91;2084840;28;21052;-65
2024/01/25 02:52:39;;;;;;;1.27;0.60;;;;;;;10.49;100.00;101667.53;2086117;28;20662;-65
2024/01/25 02:53:39;;;;;;;0.73;0.57;;;;;;;11.23;100.00;101778.72;2083874;28;20234;-65
2024/01/25 02:54:40;;;;;;;1.27;0.60;;;;;;;11.25;100.00;101774.34;2082746;28;20209;-66
2024/01/25 02:55:40;;;;;;;1.17;0.60;;;;;;;11.23;100.00;101784.25;2083064;28;20196;-65
2024/01/25 02:56:41;;;;;;;1.43;0.77;;;;;;;11.16;100.00;101776.78;2081693;28;20666;-66
2024/01/25 02:57:41;;;;;;;1.90;0.60;;;;;;;11.13;100.00;101768.47;2085256;28;21265;-65
2024/01/25 02:58:42;;;;;;;1.60;0.83;;;;;;;11.19;100.00;101781.53;2084172;28;20277;-65
2024/01/25 02:59:42;;;;;;;1.10;0.80;;;;;;;11.25;100.00;101782.66;2083289;28;20219;-65
2024/01/25 03:00:43;;;;;;;1.07;0.50;;;;;;;11.27;100.00;101783.03;2083797;28;20200;-66
2024/01/25 03:01:44;;;;;;;0.83;0.57;;;;;;;11.08;100.00;101771.69;2082954;28;20184;-66
2024/01/25 03:02:45;;;;;;;0.70;0.50;;;;;;;11.06;100.00;101754.69;2083681;28;20243;-66
2024/01/25 03:03:45;;;;;;;1.37;0.70;;;;;;;11.27;100.00;101782.25;2085636;28;20949;-66
2024/01/25 03:04:46;;;;;;;1.40;0.57;;;;;;;11.24;100.00;101777.50;2084683;28;20210;-65
2024/01/25 03:05:46;;;;;;;2.60;0.70;;;;;;;11.19;100.00;101783.50;2083180;28;20203;-65
2024/01/25 03:06:47;;;;;;;1.40;0.50;;;;;;;11.19;100.00;101777.94;2081448;28;20192;-65
2024/01/25 03:07:47;;;;;;;0.83;0.50;;;;;;;11.28;99.98;101784.59;2082316;28;20316;-66
2024/01/25 03:08:48;;;;;;;1.57;0.80;;;;;;;10.84;99.86;101717.19;2083752;28;20177;-66
2024/01/25 03:09:48;;;;;;;1.30;0.67;;;;;;;11.26;100.00;101786.19;2085261;28;20238;-66
2024/01/25 03:10:49;;;;;;;1.73;0.60;;;;;;;11.22;100.00;101777.91;2083129;28;20199;-66
2024/01/25 03:11:50;;;;;;;1.33;0.70;;;;;;;11.23;99.85;101781.47;2083055;28;20213;-66
2024/01/25 03:12:50;;;;;;;1.60;0.57;;;;;;;11.24;99.94;101788.59;2084102;28;20192;-65
2024/01/25 03:13:51;;;;;;;0.93;0.60;;;;;;;11.14;99.95;101787.50;2083503;28;20193;-66
2024/01/25 03:14:51;;;;;;;1.63;0.83;;;;;;;11.24;99.08;101788.59;2083233;28;20188;-65
2024/01/25 03:15:52;;;;;;;1.70;0.97;;;;;;;11.26;99.06;101789.78;2085707;28;20188;-66
2024/01/25 03:16:52;;;;;;;0.97;0.70;;;;;;;11.27;98.34;101791.34;2082471;28;20260;-65
2024/01/25 03:17:53;;;;;;;1.13;0.70;;;;;;;11.23;98.18;101793.34;2082947;28;20226;-65
2024/01/25 03:18:53;;;;;;;2.07;0.80;;;;;;;10.56;98.08;101686.91;2083332;28;20197;-65
2024/01/25 03:19:54;;;;;;;0.83;0.70;;;;;;;11.22;97.79;101782.69;2083182;28;20267;-66
2024/01/25 03:20:54;;;;;;;1.73;0.80;;;;;;;11.25;97.93;101779.06;2083446;28;20645;-66
2024/01/25 03:21:55;;;;;;;1.17;0.70;;;;;;;11.23;97.76;101778.72;2085607;28;20226;-66
2024/01/25 03:22:55;;;;;;;2.73;0.73;;;;;;;11.20;98.11;101785.88;2083640;28;20271;-65
2024/01/25 03:23:56;;;;;;;1.90;0.90;;;;;;;11.11;98.04;101757.00;2083072;28;20249;-66
2024/01/25 03:24:56;;;;;;;2.13;0.93;;;;;;;11.25;98.36;101785.44;2083758;28;20184;-66
2024/01/25 03:25:57;;;;;;;1.33;0.70;;;;;;;11.15;98.14;101769.66;2083074;28;20188;-66
2024/01/25 03:26:57;;;;;;;0.97;0.70;;;;;;;11.30;98.02;101782.22;2082596;28;20184;-65
2024/01/25 03:28:00;;;;;;;1.20;0.67;;;;;;;11.05;97.78;101741.97;2085508;28;20665;-65
2024/01/25 03:29:00;;;;;;;2.50;0.70;;;;;;;11.36;97.76;101796.41;2083453;28;20195;-66
2024/01/25 03:30:01;;;;;;;1.63;0.60;;;;;;;11.30;97.76;101795.28;2083477;28;20978;-65
2024/01/25 03:31:01;;;;;;;1.30;0.60;;;;;;;11.16;97.92;101787.88;2083474;28;20196;-65
2024/01/25 03:32:02;;;;;;;0.73;0.60;;;;;;;11.33;98.19;101802.81;2083360;28;20398;-66
2024/01/25 03:33:02;;;;;;;1.50;0.90;;;;;;;11.31;97.82;101802.41;2084011;28;20184;-66
2024/01/25 03:34:03;;;;;;;1.43;0.70;;;;;;;11.32;97.91;101798.47;2085563;28;20250;-65
2024/01/25 03:35:04;;;;;;;1.83;0.80;;;;;;;10.43;97.81;101666.41;2082861;28;20262;-65
2024/01/25 03:36:05;;;;;;;3.37;0.80;;;;;;;11.21;98.10;101793.00;2082976;28;20552;-66
2024/01/25 03:37:06;;;;;;;1.30;0.80;;;;;;;11.24;98.66;101808.84;2082404;28;20192;-66
2024/01/25 03:38:07;;;;;;;0.80;0.60;;;;;;;11.23;99.09;101821.09;2082676;28;20422;-66
2024/01/25 03:39:08;;;;;;;2.47;0.70;;;;;;;11.26;99.32;101809.19;2081858;28;20192;-66
2024/01/25 03:40:09;;;;;;;1.03;0.60;;;;;;;11.28;99.41;101797.69;2085395;28;20235;-66
2024/01/25 03:41:09;;;;;;;1.53;0.70;;;;;;;11.32;99.35;101804.78;2083359;28;20326;-66
2024/01/25 03:42:10;;;;;;;2.10;0.77;;;;;;;11.28;99.52;101806.78;2083107;28;20193;-66
2024/01/25 03:43:10;;;;;;;2.13;0.80;;;;;;;11.30;99.52;101809.97;2083795;28;20189;-66
2024/01/25 03:44:11;;;;;;;0.93;0.53;;;;;;;11.35;99.81;101808.72;2082484;28;20194;-66
2024/01/25 03:45:11;;;;;;;1.37;0.63;;;;;;;11.30;99.67;101815.53;2082994;28;20201;-66
2024/01/25 03:46:12;;;;;;;1.17;0.67;;;;;;;10.89;99.76;101750.03;2085349;28;20181;-65
2024/01/25 03:47:13;;;;;;;2.17;0.77;;;;;;;10.93;100.00;101771.03;2080925;28;20299;-66
2024/01/25 03:48:13;;;;;;;1.53;0.80;;;;;;;11.24;100.00;101813.56;2082929;28;20283;-66
2024/01/25 03:49:14;;;;;;;1.43;0.60;;;;;;;11.17;100.00;101813.66;2082527;28;20193;-66
2024/01/25 03:50:14;;;;;;;2.50;0.73;;;;;;;11.14;100.00;101811.66;2083000;28;20179;-66
2024/01/25 03:51:16;;;;;;;1.73;0.70;;;;;;;11.12;100.00;101805.75;2085097;28;20630;-66
2024/01/25 03:52:16;;;;;;;0.83;0.60;;;;;;;11.09;100.00;101812.09;2087277;28;20254;-65
2024/01/25 03:53:17;;;;;;;0.60;0.40;;;;;;;11.10;100.00;101811.72;2086666;28;20442;-66
2024/01/25 03:54:17;;;;;;;2.87;0.70;;;;;;;11.00;100.00;101789.56;2084157;28;20200;-64
2024/01/25 03:55:18;;;;;;;3.67;0.90;;;;;;;10.95;100.00;101801.09;2084466;28;20200;-66
2024/01/25 03:56:18;;;;;;;1.03;0.70;;;;;;;10.93;100.00;101789.63;2083955;28;20185;-66
2024/01/25 03:57:19;;;;;;;1.87;0.77;;;;;;;10.93;100.00;101789.63;2086101;28;20191;-65
2024/01/25 03:58:19;;;;;;;1.27;0.63;;;;;;;10.84;100.00;101784.53;2087894;28;20276;-65
2024/01/25 03:59:20;;;;;;;1.50;0.80;;;;;;;10.75;100.00;101772.31;2085757;28;20203;-65
2024/01/25 04:00:21;;;;;;;2.07;0.83;;;;;;;10.82;100.00;101792.47;2084417;28;20670;-65
2024/01/25 04:01:21;;;;;;;0.57;0.50;;;;;;;10.13;100.00;101705.75;2085041;28;20192;-66
2024/01/25 04:02:22;;;;;;;1.23;0.60;;;;;;;10.67;100.00;101799.28;2085694;28;20188;-66
2024/01/25 04:03:22;;;;;;;1.20;0.60;;;;;;;10.65;100.00;101793.38;2086655;28;20685;-65
2024/01/25 04:04:23;;;;;;;1.67;0.73;;;;;;;10.58;100.00;101801.72;2085528;28;20210;-65
2024/01/25 04:05:23;;;;;;;1.27;0.70;;;;;;;10.57;100.00;101794.63;2084138;28;20657;-65
2024/01/25 04:06:24;;;;;;;1.10;0.70;;;;;;;10.52;100.00;101789.50;2083889;28;20204;-65
2024/01/25 04:07:24;;;;;;;0.70;0.60;;;;;;;10.55;100.00;101793.44;2084128;28;20211;-66
2024/01/25 04:08:25;;;;;;;1.63;0.70;;;;;;;10.56;100.00;101790.25;2085519;28;20227;-66
2024/01/25 04:09:25;;;;;;;2.43;0.90;;;;;;;10.53;100.00;101796.63;2086766;28;20222;-66
2024/01/25 04:10:26;;;;;;;3.03;0.90;;;;;;;10.49;100.00;101790.28;2085163;28;20184;-65
2024/01/25 04:11:26;;;;;;;1.63;0.80;;;;;;;10.38;100.00;101767.38;2084313;28;20440;-65
2024/01/25 04:12:27;;;;;;;2.03;0.70;;;;;;;9.60;100.00;101635.16;2085183;28;20206;-65
2024/01/25 04:13:27;;;;;;;4.87;1.10;;;;;;;10.51;100.00;101765.72;2085782;28;20238;-65
2024/01/25 04:14:28;;;;;;;1.37;0.90;;;;;;;10.49;100.00;101772.84;2085086;28;20553;-65
2024/01/25 04:15:28;;;;;;;1.40;0.80;;;;;;;10.49;100.00;101765.34;2087307;28;20188;-65
2024/01/25 04:16:29;;;;;;;2.37;1.20;;;;;;;9.55;100.00;101635.59;2085056;28;20692;-65
2024/01/25 04:17:29;;;;;;;1.77;0.90;;;;;;;10.43;100.00;101780.81;2083568;28;20193;-64
2024/01/25 04:18:30;;;;;;;2.37;0.90;;;;;;;10.35;100.00;101745.25;2085950;28;20661;-65
2024/01/25 04:19:30;;;;;;;3.70;0.90;;;;;;;10.51;100.00;101768.50;2084893;28;21325;-65
2024/01/25 04:20:34;;;;;;;3.77;0.83;;;;;;;10.48;100.00;101762.97;2084456;28;20184;-65
2024/01/25 04:21:37;;;;;;;1.20;0.67;;;;;;;10.48;100.00;101765.75;2093928;28;20184;-65
2024/01/25 04:22:38;;;;;;;1.30;0.80;;;;;;;10.45;100.00;101759.03;2084703;28;20524;-66
2024/01/25 04:23:38;;;;;;;1.00;0.67;;;;;;;10.31;100.00;101747.22;2084688;28;20503;-65
2024/01/25 04:24:39;;;;;;;4.87;1.10;;;;;;;10.38;100.00;101758.28;2084319;28;20956;-66
2024/01/25 04:25:39;;;;;;;1.60;0.90;;;;;;;9.61;100.00;101648.63;2083557;28;20201;-66
2024/01/25 04:26:40;;;;;;;1.20;0.70;;;;;;;10.49;100.00;101759.00;2083867;28;20187;-65
2024/01/25 04:27:40;;;;;;;1.50;0.73;;;;;;;10.02;100.00;101701.44;2086593;28;20189;-66
2024/01/25 04:28:41;;;;;;;2.10;0.63;;;;;;;10.37;100.00;101776.09;2084758;28;20211;-65
2024/01/25 04:29:41;;;;;;;1.17;0.70;;;;;;;10.40;100.00;101755.91;2084528;28;20274;-66
2024/01/25 04:30:42;;;;;;;0.93;0.67;;;;;;;10.42;100.00;101761.81;2083937;28;20203;-65
2024/01/25 04:31:44;;;;;;;1.47;0.73;;;;;;;10.37;100.00;101765.00;2083839;28;20236;-65
2024/01/25 04:32:45;;;;;;;1.47;0.90;;;;;;;9.58;100.00;101651.41;2083660;28;20185;-65
2024/01/25 04:33:46;;;;;;;2.53;0.83;;;;;;;10.32;100.00;101749.59;2087005;28;20946;-66
2024/01/25 04:34:47;;;;;;;1.40;0.60;;;;;;;10.26;100.00;101761.50;2085128;28;20199;-65
2024/01/25 04:35:48;;;;;;;3.47;0.90;;;;;;;10.24;100.00;101766.69;2084625;28;20250;-65
2024/01/25 04:36:48;;;;;;;2.70;0.90;;;;;;;10.23;100.00;101745.69;2084226;28;20552;-65
2024/01/25 04:37:49;;;;;;;1.10;0.80;;;;;;;10.24;100.00;101750.06;2084058;28;20211;-66
2024/01/25 04:38:49;;;;;;;3.53;1.20;;;;;;;10.20;100.00;101750.03;2084553;28;20716;-65
2024/01/25 04:39:50;;;;;;;3.77;0.87;;;;;;;9.31;100.00;101608.78;2086659;28;20207;-65
2024/01/25 04:40:50;;;;;;;3.57;1.30;;;;;;;10.27;100.00;101755.56;2085928;28;20185;-65
2024/01/25 04:41:51;;;;;;;3.03;1.07;;;;;;;9.98;100.00;101725.56;2083847;28;20199;-64